createdAt,value
2023-03-15T00:01:33.375Z,13.53
2023-03-15T00:04:00.553Z,13.44
2023-03-15T00:06:29.147Z,13.43
2023-03-15T00:08:56.281Z,13.46
2023-03-15T00:11:23.441Z,13.46
2023-03-15T00:13:50.608Z,13.43
2023-03-15T00:16:17.928Z,13.47
2023-03-15T00:18:45.400Z,13.47
2023-03-15T00:21:12.600Z,13.43
2023-03-15T00:23:41.345Z,13.45
2023-03-15T00:26:08.659Z,12.80
2023-03-15T00:28:35.821Z,12.98
2023-03-15T00:31:05.323Z,12.99
2023-03-15T00:33:32.762Z,13.16
2023-03-15T00:35:59.930Z,12.54
2023-03-15T00:38:27.105Z,12.93
2023-03-15T00:40:55.782Z,12.93
2023-03-15T00:43:22.861Z,13.15
2023-03-15T00:45:50.001Z,13.17
2023-03-15T00:48:17.162Z,13.17
2023-03-15T00:50:44.233Z,13.14
2023-03-15T00:53:11.362Z,13.19
2023-03-15T00:55:38.493Z,13.19
2023-03-15T00:58:07.123Z,13.18
2023-03-15T01:00:35.281Z,13.13
2023-03-15T01:03:02.403Z,13.19
2023-03-15T01:05:29.626Z,13.21
2023-03-15T01:07:56.781Z,13.22
2023-03-15T01:10:24.025Z,13.23
2023-03-15T01:12:51.104Z,13.17
2023-03-15T01:15:20.036Z,14.38
2023-03-15T01:17:47.299Z,14.89
2023-03-15T01:20:16.089Z,15.15
2023-03-15T01:22:43.340Z,15.48
2023-03-15T01:25:11.092Z,15.40
2023-03-15T01:27:38.244Z,15.51
2023-03-15T01:30:07.135Z,15.76
2023-03-15T01:32:35.830Z,16.07
2023-03-15T01:35:02.983Z,16.26
2023-03-15T01:37:30.160Z,16.60
2023-03-15T01:39:57.282Z,17.02
2023-03-15T01:42:24.370Z,17.36
2023-03-15T01:44:55.294Z,17.46
2023-03-15T01:47:23.821Z,17.56
2023-03-15T01:49:59.221Z,17.62
2023-03-15T01:52:33.024Z,17.75
2023-03-15T01:55:07.852Z,17.84
2023-03-15T01:57:40.360Z,17.80
2023-03-15T02:00:10.641Z,17.95
2023-03-15T02:02:42.236Z,17.77
2023-03-15T02:05:15.524Z,17.86
2023-03-15T02:07:45.761Z,17.90
2023-03-15T02:10:18.780Z,17.87
2023-03-15T02:12:50.646Z,17.95
2023-03-15T02:15:18.620Z,17.89
2023-03-15T02:17:48.661Z,17.83
2023-03-15T02:20:33.101Z,17.79
2023-03-15T02:23:03.843Z,17.65
2023-03-15T02:25:43.665Z,17.70
2023-03-15T02:28:16.478Z,17.63
2023-03-15T02:30:44.262Z,17.57
2023-03-15T02:33:18.944Z,17.51
2023-03-15T02:35:46.141Z,17.55
2023-03-15T02:38:13.696Z,17.43
2023-03-15T02:40:41.362Z,17.48
2023-03-15T02:43:17.665Z,17.39
2023-03-15T02:45:47.280Z,17.32
2023-03-15T02:48:14.963Z,17.45
2023-03-15T02:50:42.064Z,17.34
2023-03-15T02:53:09.324Z,17.43
2023-03-15T02:55:36.385Z,17.35
2023-03-15T02:58:03.855Z,17.34
2023-03-15T03:00:32.554Z,17.17
2023-03-15T03:02:59.671Z,17.22
2023-03-15T03:05:27.366Z,17.30
2023-03-15T03:07:54.569Z,17.27
2023-03-15T03:10:22.676Z,17.24
2023-03-15T03:12:49.846Z,17.11
2023-03-15T03:15:16.966Z,16.94
2023-03-15T03:17:45.531Z,16.73
2023-03-15T03:20:14.367Z,16.81
2023-03-15T03:22:43.048Z,16.90
2023-03-15T03:25:11.137Z,16.90
2023-03-15T03:27:38.983Z,16.71
2023-03-15T03:30:10.373Z,16.71
2023-03-15T03:32:37.562Z,16.60
2023-03-15T03:35:07.140Z,16.49
2023-03-15T03:37:34.301Z,16.51
2023-03-15T03:40:01.503Z,16.42
2023-03-15T03:42:28.539Z,16.40
2023-03-15T03:44:55.585Z,16.46
2023-03-15T03:47:22.759Z,16.56
2023-03-15T03:49:49.864Z,16.64
2023-03-15T03:52:18.420Z,16.68
2023-03-15T03:54:45.478Z,16.63
2023-03-15T03:57:12.568Z,16.69
2023-03-15T03:59:39.667Z,16.62
2023-03-15T04:02:06.962Z,16.62
2023-03-15T04:04:34.338Z,16.57
2023-03-15T04:07:01.521Z,16.62
2023-03-15T04:09:30.180Z,16.58
2023-03-15T04:11:57.281Z,16.59
2023-03-15T04:14:24.958Z,16.65
2023-03-15T04:16:52.061Z,16.52
2023-03-15T04:19:19.223Z,16.52
2023-03-15T04:21:46.319Z,16.54
2023-03-15T04:24:13.999Z,16.40
2023-03-15T04:26:42.638Z,16.44
2023-03-15T04:29:10.802Z,16.35
2023-03-15T04:31:38.282Z,16.39
2023-03-15T04:34:06.086Z,16.34
2023-03-15T04:36:33.165Z,16.27
2023-03-15T04:39:00.311Z,16.33
2023-03-15T04:41:27.386Z,16.42
2023-03-15T04:43:55.992Z,16.36
2023-03-15T04:46:24.876Z,16.42
2023-03-15T04:48:52.169Z,16.40
2023-03-15T04:51:19.411Z,16.37
2023-03-15T04:53:46.490Z,16.30
2023-03-15T04:56:13.777Z,16.32
2023-03-15T04:58:40.979Z,16.32
2023-03-15T05:01:10.041Z,16.36
2023-03-15T05:03:37.250Z,16.34
2023-03-15T05:06:04.728Z,16.28
2023-03-15T05:08:31.952Z,16.29
2023-03-15T05:10:59.208Z,16.36
2023-03-15T05:13:26.409Z,16.31
2023-03-15T05:15:53.746Z,16.31
2023-03-15T05:18:22.649Z,16.16
2023-03-15T05:20:49.852Z,16.06
2023-03-15T05:23:17.207Z,16.12
2023-03-15T05:25:44.488Z,16.09
2023-03-15T05:28:11.627Z,16.09
2023-03-15T05:30:38.700Z,16.13
2023-03-15T05:33:05.828Z,16.11
2023-03-15T05:35:34.587Z,15.99
2023-03-15T05:38:01.727Z,16.03
2023-03-15T05:40:28.988Z,15.86
2023-03-15T05:42:56.595Z,15.74
2023-03-15T05:45:24.204Z,15.78
2023-03-15T05:47:51.335Z,15.78
2023-03-15T05:50:18.654Z,15.85
2023-03-15T05:52:47.285Z,15.73
2023-03-15T05:55:14.550Z,15.77
2023-03-15T05:57:41.771Z,15.72
2023-03-15T06:00:11.456Z,15.67
2023-03-15T06:02:38.618Z,15.77
2023-03-15T06:05:06.852Z,15.51
2023-03-15T06:07:33.953Z,15.53
2023-03-15T06:10:02.715Z,15.60
2023-03-15T06:12:29.897Z,15.71
2023-03-15T06:14:57.272Z,15.64
2023-03-15T06:17:24.851Z,15.64
2023-03-15T06:19:52.008Z,15.53
2023-03-15T06:22:19.171Z,15.67
2023-03-15T06:24:46.415Z,15.59
2023-03-15T06:27:15.051Z,15.57
2023-03-15T06:29:42.392Z,15.61
2023-03-15T06:32:10.026Z,15.78
2023-03-15T06:34:37.315Z,15.94
2023-03-15T06:37:04.533Z,16.26
2023-03-15T06:39:31.722Z,16.36
2023-03-15T06:41:58.881Z,16.64
2023-03-15T06:44:27.524Z,16.70
2023-03-15T06:46:54.666Z,16.84
2023-03-15T06:49:21.797Z,16.97
2023-03-15T06:51:48.901Z,17.26
2023-03-15T06:54:16.061Z,17.39
2023-03-15T06:56:43.263Z,17.70
2023-03-15T06:59:10.369Z,18.04
2023-03-15T07:01:38.967Z,18.64
2023-03-15T07:04:08.339Z,19.12
2023-03-15T07:06:36.320Z,19.16
2023-03-15T07:09:05.906Z,18.92
2023-03-15T07:11:33.372Z,18.65
2023-03-15T07:14:00.584Z,18.45
2023-03-15T07:16:27.772Z,18.71
2023-03-15T07:18:56.503Z,18.68
2023-03-15T07:21:23.666Z,18.84
2023-03-15T07:23:50.787Z,18.84
2023-03-15T07:26:18.129Z,18.64
2023-03-15T07:28:45.631Z,19.08
2023-03-15T07:31:12.954Z,19.18
2023-03-15T07:33:40.176Z,19.12
2023-03-15T07:36:09.326Z,19.08
2023-03-15T07:38:36.914Z,19.29
2023-03-15T07:41:06.284Z,19.59
2023-03-15T07:43:34.433Z,19.82
2023-03-15T07:46:01.833Z,20.24
2023-03-15T07:48:29.322Z,20.06
2023-03-15T07:50:56.981Z,20.08
2023-03-15T07:53:26.014Z,19.96
2023-03-15T07:55:53.449Z,20.41
2023-03-15T07:58:20.711Z,20.65
2023-03-15T08:00:48.270Z,20.84
2023-03-15T08:03:15.726Z,20.72
2023-03-15T08:05:42.933Z,20.58
2023-03-15T08:08:10.156Z,20.72
2023-03-15T08:10:38.878Z,20.67
2023-03-15T08:13:06.229Z,20.69
2023-03-15T08:15:33.534Z,20.75
2023-03-15T08:18:00.896Z,20.93
2023-03-15T08:20:29.822Z,20.75
2023-03-15T08:22:57.534Z,20.98
2023-03-15T08:25:26.120Z,21.17
2023-03-15T08:27:54.751Z,21.04
2023-03-15T08:30:22.471Z,21.21
2023-03-15T08:32:51.029Z,21.35
2023-03-15T08:35:20.349Z,21.42
2023-03-15T08:37:48.095Z,21.49
2023-03-15T08:40:17.230Z,21.37
2023-03-15T08:42:44.471Z,21.36
2023-03-15T08:45:13.097Z,21.57
2023-03-15T08:47:40.413Z,21.68
2023-03-15T08:50:11.615Z,21.93
2023-03-15T08:52:39.409Z,22.04
2023-03-15T08:55:07.942Z,21.99
2023-03-15T08:57:35.394Z,21.79
2023-03-15T09:00:05.024Z,21.80
2023-03-15T09:02:34.732Z,21.79
2023-03-15T09:05:02.079Z,21.82
2023-03-15T09:07:29.337Z,21.65
2023-03-15T09:09:56.490Z,21.71
2023-03-15T09:12:23.625Z,21.86
2023-03-15T09:14:50.898Z,21.82
2023-03-15T09:17:18.084Z,21.74
2023-03-15T09:19:46.690Z,21.64
2023-03-15T09:22:17.141Z,21.83
2023-03-15T09:24:51.734Z,21.85
2023-03-15T09:27:19.327Z,22.15
2023-03-15T09:29:46.575Z,22.27
2023-03-15T09:32:14.006Z,22.15
2023-03-15T09:34:42.254Z,22.14
2023-03-15T09:37:11.249Z,21.70
2023-03-15T09:39:38.392Z,21.71
2023-03-15T09:42:17.267Z,21.20
2023-03-15T09:44:47.967Z,21.39
2023-03-15T09:47:32.488Z,21.76
2023-03-15T09:50:07.819Z,21.74
2023-03-15T09:52:43.318Z,21.80
2023-03-15T09:55:17.429Z,22.04
2023-03-15T09:57:50.801Z,22.16
2023-03-15T10:00:24.013Z,22.28
2023-03-15T10:03:00.170Z,22.27
2023-03-15T10:05:37.871Z,21.75
2023-03-15T10:08:11.912Z,22.11
2023-03-15T10:10:49.631Z,21.83
2023-03-15T10:13:33.147Z,22.32
2023-03-15T10:16:23.045Z,22.20
2023-03-15T10:19:05.512Z,22.24
2023-03-15T10:21:48.296Z,21.87
2023-03-15T10:24:23.136Z,22.31
2023-03-15T10:26:53.798Z,22.28
2023-03-15T10:29:24.613Z,22.01
2023-03-15T10:31:55.134Z,22.32
2023-03-15T10:34:24.238Z,22.48
2023-03-15T10:36:52.127Z,21.62
2023-03-15T10:39:22.412Z,22.34
2023-03-15T10:41:51.389Z,22.37
2023-03-15T10:44:21.695Z,22.14
2023-03-15T10:47:06.986Z,21.96
2023-03-15T10:49:38.645Z,22.36
2023-03-15T10:52:06.167Z,22.13
2023-03-15T10:54:36.129Z,22.39
2023-03-15T10:57:06.789Z,22.43
2023-03-15T10:59:36.112Z,22.53
2023-03-15T11:02:22.605Z,22.61
2023-03-15T11:04:59.845Z,22.43
2023-03-15T11:07:27.031Z,22.32
2023-03-15T11:10:01.082Z,22.07
2023-03-15T11:12:29.926Z,21.43
2023-03-15T11:15:00.749Z,21.68
2023-03-15T11:17:30.857Z,21.90
2023-03-15T11:20:00.989Z,21.67
2023-03-15T11:22:28.190Z,20.78
2023-03-15T11:24:57.252Z,21.11
2023-03-15T11:27:26.888Z,21.33
2023-03-15T11:29:57.864Z,21.87
2023-03-15T11:32:29.027Z,21.70
2023-03-15T11:35:02.606Z,21.61
2023-03-15T11:37:38.391Z,21.78
2023-03-15T11:40:18.163Z,21.90
2023-03-15T11:42:54.830Z,21.40
2023-03-15T11:45:34.401Z,20.95
2023-03-15T11:48:11.450Z,21.18
2023-03-15T11:50:40.238Z,20.58
2023-03-15T11:53:11.293Z,20.86
2023-03-15T11:55:40.093Z,21.13
2023-03-15T11:58:29.536Z,20.91
2023-03-15T12:01:01.872Z,21.02
2023-03-15T12:03:33.890Z,21.10
2023-03-15T12:06:11.341Z,20.83
2023-03-15T12:08:45.732Z,20.86
2023-03-15T12:11:40.086Z,20.97
2023-03-15T12:14:26.014Z,20.92
2023-03-15T12:17:46.160Z,20.94
2023-03-15T12:20:20.727Z,21.20
2023-03-15T12:22:53.289Z,21.29
2023-03-15T12:25:29.567Z,21.21
2023-03-15T12:27:59.888Z,20.91
2023-03-15T12:30:34.025Z,21.12
2023-03-15T12:33:03.611Z,21.12
2023-03-15T12:35:39.955Z,21.20
2023-03-15T12:38:16.226Z,21.14
2023-03-15T12:40:53.323Z,21.08
2023-03-15T12:43:40.188Z,20.94
2023-03-15T12:46:08.285Z,20.72
2023-03-15T12:48:35.541Z,20.46
2023-03-15T12:51:06.164Z,20.38
2023-03-15T12:53:54.182Z,20.58
2023-03-15T12:56:56.182Z,20.79
2023-03-15T12:59:32.644Z,20.80
2023-03-15T13:02:02.791Z,20.56
2023-03-15T13:04:31.661Z,20.59
2023-03-15T13:07:18.114Z,20.41
2023-03-15T13:10:21.952Z,20.74
2023-03-15T13:12:57.663Z,20.76
2023-03-15T13:15:34.686Z,20.83
2023-03-15T13:18:15.114Z,20.50
2023-03-15T13:20:48.567Z,20.32
2023-03-15T13:23:27.103Z,20.09
2023-03-15T13:26:13.941Z,20.00
2023-03-15T13:28:48.564Z,19.96
2023-03-15T13:31:23.812Z,20.08
2023-03-15T13:33:53.707Z,19.98
2023-03-15T13:36:20.864Z,20.20
2023-03-15T13:38:50.532Z,19.87
2023-03-15T13:41:22.000Z,20.04
2023-03-15T13:43:51.125Z,19.75
2023-03-15T13:46:22.675Z,19.38
2023-03-15T13:48:51.584Z,19.62
2023-03-15T13:51:22.780Z,19.39
2023-03-15T13:53:52.845Z,19.58
2023-03-15T13:56:32.640Z,19.47
2023-03-15T13:59:06.685Z,20.09
2023-03-15T14:01:40.411Z,20.29
2023-03-15T14:04:14.691Z,20.04
2023-03-15T14:06:42.696Z,19.48
2023-03-15T14:09:16.946Z,19.51
2023-03-15T14:11:44.245Z,19.23
2023-03-15T14:14:22.843Z,19.31
2023-03-15T14:17:04.757Z,19.18
2023-03-15T14:19:35.574Z,18.64
2023-03-15T14:22:13.004Z,18.65
2023-03-15T14:24:43.482Z,18.57
2023-03-15T14:27:17.974Z,18.37
2023-03-15T14:29:50.323Z,18.27
2023-03-15T14:32:29.443Z,18.31
2023-03-15T14:35:05.970Z,18.10
2023-03-15T14:37:38.637Z,17.99
2023-03-15T14:40:18.562Z,17.68
2023-03-15T14:42:45.921Z,17.50
2023-03-15T14:45:13.867Z,17.32
2023-03-15T14:47:56.062Z,17.39
2023-03-15T14:50:26.488Z,17.64
2023-03-15T14:52:54.540Z,17.19
2023-03-15T14:55:25.037Z,17.50
2023-03-15T14:57:52.147Z,17.54
2023-03-15T15:00:20.680Z,17.36
2023-03-15T15:02:54.141Z,17.51
2023-03-15T15:05:25.748Z,17.68
2023-03-15T15:08:01.889Z,17.72
2023-03-15T15:10:30.575Z,17.34
2023-03-15T15:13:06.098Z,17.38
2023-03-15T15:15:47.412Z,17.57
2023-03-15T15:18:23.574Z,17.06
2023-03-15T15:20:51.114Z,16.99
2023-03-15T15:23:21.348Z,17.12
2023-03-15T15:25:51.894Z,17.27
2023-03-15T15:28:33.347Z,17.44
2023-03-15T15:31:02.435Z,17.46
2023-03-15T15:33:31.208Z,17.52
2023-03-15T15:35:58.915Z,17.32
2023-03-15T15:38:31.406Z,17.27
2023-03-15T15:40:58.568Z,17.19
2023-03-15T15:43:25.808Z,17.34
2023-03-15T15:45:52.936Z,17.05
2023-03-15T15:48:20.234Z,17.16
2023-03-15T15:50:49.048Z,17.03
2023-03-15T15:53:18.428Z,17.09
2023-03-15T15:55:46.199Z,17.20
2023-03-15T15:58:14.577Z,17.32
2023-03-15T16:00:41.724Z,17.32
2023-03-15T16:03:13.649Z,17.35
2023-03-15T16:05:41.653Z,17.27
2023-03-15T16:08:21.621Z,17.19
2023-03-15T16:10:49.182Z,17.12
2023-03-15T16:13:16.889Z,17.08
2023-03-15T16:15:44.148Z,17.15
2023-03-15T16:18:12.728Z,17.16
2023-03-15T16:20:41.804Z,17.41
2023-03-15T16:23:19.064Z,17.33
2023-03-15T16:25:50.241Z,17.26
2023-03-15T16:28:17.728Z,17.29
2023-03-15T16:30:46.891Z,17.34
2023-03-15T16:33:19.225Z,17.16
2023-03-15T16:35:48.096Z,16.75
2023-03-15T16:38:19.333Z,16.86
2023-03-15T16:40:46.731Z,16.83
2023-03-15T16:43:14.877Z,17.02
2023-03-15T16:45:42.262Z,16.88
2023-03-15T16:48:09.763Z,17.03
2023-03-15T16:50:37.128Z,17.00
2023-03-15T16:53:09.365Z,17.01
2023-03-15T16:55:38.843Z,17.06
2023-03-15T16:58:17.382Z,16.99
2023-03-15T17:00:44.883Z,16.98
2023-03-15T17:03:12.230Z,16.96
2023-03-15T17:05:41.634Z,16.93
2023-03-15T17:08:13.844Z,16.93
2023-03-15T17:10:43.284Z,16.85
2023-03-15T17:13:14.730Z,16.93
2023-03-15T17:15:42.425Z,16.83
2023-03-15T17:18:17.237Z,16.98
2023-03-15T17:20:45.229Z,16.93
2023-03-15T17:23:12.411Z,16.87
2023-03-15T17:25:40.249Z,16.76
2023-03-15T17:28:09.031Z,16.75
2023-03-15T17:30:37.872Z,16.67
2023-03-15T17:33:07.106Z,16.64
2023-03-15T17:35:37.706Z,16.64
2023-03-15T17:38:13.097Z,16.62
2023-03-15T17:40:40.877Z,16.61
2023-03-15T17:43:14.909Z,16.53
2023-03-15T17:45:43.365Z,16.49
2023-03-15T17:48:10.956Z,16.41
2023-03-15T17:50:38.585Z,16.41
2023-03-15T17:53:11.722Z,16.39
2023-03-15T17:55:39.107Z,16.34
2023-03-15T17:58:16.495Z,16.35
2023-03-15T18:00:43.912Z,16.30
2023-03-15T18:03:15.150Z,16.29
2023-03-15T18:05:42.465Z,16.24
2023-03-15T18:08:11.631Z,16.20
2023-03-15T18:10:41.839Z,16.08
2023-03-15T18:13:15.246Z,16.02
2023-03-15T18:15:42.553Z,16.05
2023-03-15T18:18:10.155Z,16.01
2023-03-15T18:20:37.887Z,15.98
2023-03-15T18:23:05.428Z,15.84
2023-03-15T18:25:34.877Z,15.82
2023-03-15T18:28:02.447Z,15.76
2023-03-15T18:30:31.626Z,15.75
2023-03-15T18:32:58.931Z,15.61
2023-03-15T18:35:29.763Z,15.54
2023-03-15T18:37:58.002Z,15.56
2023-03-15T18:40:27.759Z,15.52
2023-03-15T18:42:55.784Z,15.35
2023-03-15T18:45:26.183Z,15.18
2023-03-15T18:47:54.958Z,15.27
2023-03-15T18:50:22.622Z,15.20
2023-03-15T18:52:50.145Z,15.20
2023-03-15T18:55:19.708Z,15.07
2023-03-15T18:57:46.892Z,15.04
2023-03-15T19:00:18.163Z,14.91
2023-03-15T19:02:46.945Z,15.00
2023-03-15T19:05:17.222Z,14.88
2023-03-15T19:07:47.269Z,15.03
2023-03-15T19:10:18.197Z,14.89
2023-03-15T19:12:46.732Z,14.77
2023-03-15T19:15:16.188Z,14.87
2023-03-15T19:17:43.964Z,14.94
2023-03-15T19:20:14.309Z,14.78
2023-03-15T19:22:43.421Z,14.82
2023-03-15T19:25:11.844Z,14.93
2023-03-15T19:27:39.084Z,14.79
2023-03-15T19:30:09.136Z,14.84
2023-03-15T19:32:36.621Z,14.75
2023-03-15T19:35:04.665Z,14.76
2023-03-15T19:37:31.771Z,14.75
2023-03-15T19:40:00.425Z,14.73
2023-03-15T19:42:27.788Z,14.60
2023-03-15T19:44:54.965Z,14.65
2023-03-15T19:47:22.174Z,14.62
2023-03-15T19:49:49.470Z,14.55
2023-03-15T19:52:16.678Z,14.61
2023-03-15T19:54:43.812Z,14.52
2023-03-15T19:57:12.985Z,14.67
2023-03-15T19:59:40.267Z,14.67
2023-03-15T20:02:08.087Z,14.68
2023-03-15T20:04:35.983Z,14.66
2023-03-15T20:07:03.581Z,14.52
2023-03-15T20:09:30.920Z,14.44
2023-03-15T20:11:58.245Z,14.54
2023-03-15T20:14:27.045Z,14.50
2023-03-15T20:16:55.046Z,14.39
2023-03-15T20:19:31.749Z,14.45
2023-03-15T20:22:00.013Z,14.38
2023-03-15T20:24:27.807Z,14.44
2023-03-15T20:26:55.948Z,14.45
2023-03-15T20:29:23.524Z,14.47
2023-03-15T20:31:53.051Z,14.47
2023-03-15T20:34:21.548Z,14.48
2023-03-15T20:36:49.734Z,14.50
2023-03-15T20:39:17.189Z,14.46
2023-03-15T20:41:44.816Z,14.42
2023-03-15T20:44:13.449Z,14.40
2023-03-15T20:46:41.725Z,14.37
2023-03-15T20:49:10.987Z,14.31
2023-03-15T20:51:39.049Z,14.30
2023-03-15T20:54:07.348Z,14.33
2023-03-15T20:56:34.755Z,14.34
2023-03-15T20:59:02.186Z,14.24
2023-03-15T21:01:29.498Z,14.22
2023-03-15T21:03:56.785Z,14.30
2023-03-15T21:06:26.108Z,14.18
2023-03-15T21:08:54.802Z,15.48
2023-03-15T21:11:22.325Z,17.67
2023-03-15T21:13:50.325Z,18.89
2023-03-15T21:16:17.729Z,19.76
2023-03-15T21:18:46.143Z,18.92
2023-03-15T21:21:14.965Z,17.84
2023-03-15T21:23:44.764Z,17.11
2023-03-15T21:26:14.701Z,16.54
2023-03-15T21:28:43.514Z,16.10
2023-03-15T21:31:11.667Z,15.56
2023-03-15T21:33:39.596Z,15.45
2023-03-15T21:36:07.766Z,15.27
2023-03-15T21:38:35.370Z,15.09
2023-03-15T21:41:09.880Z,15.18
2023-03-15T21:43:38.697Z,15.01
2023-03-15T21:46:08.537Z,14.90
2023-03-15T21:48:37.087Z,14.74
2023-03-15T21:51:06.076Z,14.67
2023-03-15T21:53:34.327Z,14.71
2023-03-15T21:56:03.350Z,14.53
2023-03-15T21:58:32.674Z,14.48
2023-03-15T22:01:01.967Z,14.47
2023-03-15T22:03:29.442Z,14.47
2023-03-15T22:05:57.320Z,14.49
2023-03-15T22:08:25.435Z,14.48
2023-03-15T22:10:54.314Z,14.42
2023-03-15T22:13:22.140Z,14.36
2023-03-15T22:15:51.197Z,14.25
2023-03-15T22:18:19.303Z,14.29
2023-03-15T22:20:47.570Z,14.30
2023-03-15T22:23:14.876Z,14.15
2023-03-15T22:25:42.143Z,14.24
2023-03-15T22:28:09.387Z,14.39
2023-03-15T22:30:36.572Z,14.16
2023-03-15T22:33:05.477Z,14.00
2023-03-15T22:35:32.812Z,13.90
2023-03-15T22:38:00.537Z,13.98
2023-03-15T22:40:28.657Z,14.00
2023-03-15T22:42:55.858Z,13.90
2023-03-15T22:45:23.038Z,13.94
2023-03-15T22:47:50.281Z,13.95
2023-03-15T22:50:19.199Z,14.03
2023-03-15T22:52:46.368Z,13.98
2023-03-15T22:55:14.640Z,14.01
2023-03-15T22:57:41.923Z,13.94
2023-03-15T23:00:13.139Z,13.83
2023-03-15T23:02:41.121Z,13.77
2023-03-15T23:05:09.803Z,13.62
2023-03-15T23:07:39.144Z,13.57
2023-03-15T23:10:08.327Z,13.57
2023-03-15T23:12:36.802Z,13.59
2023-03-15T23:15:04.882Z,13.48
2023-03-15T23:17:32.185Z,13.44
2023-03-15T23:19:59.368Z,13.33
2023-03-15T23:22:26.491Z,13.14
2023-03-15T23:24:55.106Z,13.06
2023-03-15T23:27:22.224Z,13.04
2023-03-15T23:29:54.430Z,12.90
2023-03-15T23:32:23.508Z,12.81
2023-03-15T23:34:51.481Z,12.72
2023-03-15T23:37:18.587Z,12.64
2023-03-15T23:39:46.122Z,12.67
2023-03-15T23:42:14.998Z,12.65
2023-03-15T23:44:42.150Z,12.64
2023-03-15T23:47:09.672Z,12.64
2023-03-15T23:49:36.966Z,12.64
2023-03-15T23:52:04.348Z,12.56
2023-03-15T23:54:31.974Z,12.54
2023-03-15T23:56:59.107Z,12.60
2023-03-15T23:59:27.744Z,12.54
